createdAt,value
2023-06-04T00:00:46.323Z,18
2023-06-04T00:15:44.384Z,15.9
2023-06-04T00:30:44.904Z,15.4
2023-06-04T00:45:44.879Z,15.2
2023-06-04T01:00:49.918Z,15
2023-06-04T01:15:48.985Z,15
2023-06-04T01:30:49.396Z,15.9
2023-06-04T01:45:50.671Z,15
2023-06-04T02:00:51.627Z,15.8
2023-06-04T02:15:49.940Z,16.4
2023-06-04T02:30:52.176Z,15.1
2023-06-04T02:45:51.117Z,15.9
2023-06-04T03:00:52.640Z,14.6
2023-06-04T03:12:21.652Z,14.3
2023-06-04T03:27:23.150Z,15.1
2023-06-04T03:42:22.440Z,14.6
2023-06-04T03:57:23.319Z,13.3
2023-06-04T04:12:24.599Z,12.6
2023-06-04T04:27:24.647Z,13.2
2023-06-04T04:42:25.255Z,13.1
2023-06-04T04:57:27.292Z,13.6
2023-06-04T05:12:27.268Z,13.4
2023-06-04T05:27:27.372Z,14.6
2023-06-04T05:42:28.583Z,14.8
2023-06-04T05:57:29.660Z,15.2
2023-06-04T06:12:29.391Z,15.5
2023-06-04T06:27:31.003Z,15.7
2023-06-04T06:42:30.953Z,16
2023-06-04T06:57:31.905Z,16.9
2023-06-04T07:12:32.322Z,18
2023-06-04T07:27:33.506Z,18.6
2023-06-04T07:42:33.660Z,19
2023-06-04T07:57:39.378Z,19.3
2023-06-04T08:12:34.851Z,19.5
2023-06-04T08:27:36.872Z,19.5
2023-06-04T08:42:36.673Z,20.2
2023-06-04T08:57:37.012Z,20.4
2023-06-04T09:12:39.498Z,20.4
2023-06-04T09:27:40.237Z,20.7
2023-06-04T09:42:39.088Z,21.4
2023-06-04T09:57:39.274Z,21.9
2023-06-04T10:12:41.303Z,22.3
2023-06-04T10:27:42.349Z,22.6
2023-06-04T10:42:41.847Z,23.1
2023-06-04T10:57:42.689Z,24.2
2023-06-04T11:12:42.939Z,24.2
2023-06-04T11:27:44.045Z,24.5
2023-06-04T11:42:44.181Z,25
2023-06-04T11:57:44.654Z,24.7
2023-06-04T12:12:45.499Z,24.9
2023-06-04T12:27:46.419Z,24.2
2023-06-04T12:42:46.817Z,24.3
2023-06-04T12:57:50.333Z,24.3
2023-06-04T13:12:48.533Z,23.8
2023-06-04T13:27:48.874Z,23.8
2023-06-04T13:42:49.775Z,23.4
2023-06-04T13:57:50.143Z,23
2023-06-04T14:12:57.516Z,23
2023-06-04T14:27:52.074Z,22.8
2023-06-04T14:43:00.048Z,22.5
2023-06-04T14:57:52.828Z,22.5
2023-06-04T15:12:53.967Z,22.4
2023-06-04T15:27:56.974Z,22.4
2023-06-04T15:42:57.720Z,22.3
2023-06-04T15:57:55.387Z,21.7
2023-06-04T16:12:57.586Z,22
2023-06-04T16:27:56.767Z,21.9
2023-06-04T16:42:57.829Z,21.7
2023-06-04T16:57:57.669Z,21.3
2023-06-04T17:13:01.787Z,21.3
2023-06-04T17:28:00.020Z,21.2
2023-06-04T17:42:59.811Z,21
2023-06-04T17:58:01.241Z,21.3
2023-06-04T18:13:00.241Z,21.1
2023-06-04T18:28:02.063Z,21
2023-06-04T18:43:03.553Z,20.8
2023-06-04T18:58:03.650Z,20.4
2023-06-04T19:13:06.099Z,20.4
2023-06-04T19:28:03.865Z,20.2
2023-06-04T19:43:04.464Z,20.2
2023-06-04T19:58:07.327Z,20.2
2023-06-04T20:13:05.656Z,19.9
2023-06-04T20:28:10.258Z,19.9
2023-06-04T20:43:08.446Z,19.9
2023-06-04T20:58:07.482Z,19.8
2023-06-04T21:13:08.317Z,19.7
2023-06-04T21:28:07.880Z,19.7
2023-06-04T21:43:10.535Z,19.4
2023-06-04T21:58:09.069Z,19.4
2023-06-04T22:00:37.065Z,19.4
2023-06-04T22:15:37.449Z,19.1
2023-06-04T22:30:39.365Z,19.1
2023-06-04T22:45:38.390Z,19.3
2023-06-04T23:00:39.003Z,19.2
2023-06-04T23:15:39.560Z,18.4
2023-06-04T23:30:40.649Z,18
2023-06-04T23:45:42.398Z,17.8
